Time;durP1;ratioP1;P1;durP2;ratioP2;P2;SDS_P1;SDS_P2;PMS_P1;PMS_P2;Temp;Humidity;BMP_temperature;BMP_pressure;BME280_temperature;BME280_humidity;BME280_pressure;Samples;Min_cycle;Max_cycle;Signal;HPM_P1;HPM_P2
2023/03/18 00:04:55;;;;;;;30.53;12.87;;;;;;;4.73;72.84;100666.44;5086479;56;1138792;-84
2023/03/18 00:10:01;;;;;;;31.93;12.50;;;;;;;4.69;72.83;100666.66;5106838;56;1138938;-82
2023/03/18 00:15:13;;;;;;;34.67;13.63;;;;;;;4.68;73.00;100665.81;5126603;56;1139021;-80
2023/03/18 00:20:27;;;;;;;31.10;12.13;;;;;;;4.56;72.98;100664.67;5123253;56;1138912;-81
2023/03/18 00:25:27;;;;;;;31.50;12.35;;;;;;;4.56;72.98;100664.67;5032381;57;1138908;-80
2023/03/18 00:30:36;;;;;;;34.25;13.43;;;;;;;4.56;73.24;100667.29;5052516;56;1138898;-79
2023/03/18 00:35:44;;;;;;;31.57;12.63;;;;;;;4.53;73.24;100662.66;5041111;57;1138915;-81
2023/03/18 00:41:10;;;;;;;27.13;12.10;;;;;;;4.51;73.37;100657.95;5039245;57;1138913;-79
2023/03/18 00:46:02;;;;;;;32.38;12.47;;;;;;;4.47;73.52;100656.41;4950600;58;1138915;-79
2023/03/18 00:51:12;;;;;;;26.67;11.33;;;;;;;4.42;73.62;100642.27;4918778;58;1138887;-76
2023/03/18 00:56:19;;;;;;;31.23;11.93;;;;;;;4.38;73.75;100638.55;4927280;58;1138894;-78
2023/03/18 01:01:26;;;;;;;26.33;11.77;;;;;;;4.37;73.70;100632.47;4964259;57;1138853;-79
2023/03/18 01:06:36;;;;;;;28.80;11.12;;;;;;;4.31;73.87;100621.44;5028804;57;1138819;-81
2023/03/18 01:11:42;;;;;;;27.27;10.80;;;;;;;4.28;73.95;100620.31;5008900;56;1138740;-81
2023/03/18 01:16:48;;;;;;;27.60;11.47;;;;;;;4.24;74.13;100611.30;5008921;56;1138960;-78
2023/03/18 01:21:54;;;;;;;27.93;11.80;;;;;;;4.18;74.35;100622.06;5009061;56;1138853;-78
2023/03/18 01:27:01;;;;;;;28.57;10.90;;;;;;;4.17;74.33;100622.12;5028650;57;1138857;-78
2023/03/18 01:32:08;;;;;;;26.10;11.33;;;;;;;4.14;74.30;100623.13;5008893;57;1139025;-77
2023/03/18 01:37:15;;;;;;;23.07;10.20;;;;;;;4.13;74.33;100626.66;5004836;56;1138854;-77
2023/03/18 01:42:23;;;;;;;26.70;11.47;;;;;;;4.09;74.28;100632.14;5001808;57;1138986;-79
2023/03/18 01:47:29;;;;;;;27.70;10.98;;;;;;;4.08;74.42;100630.45;4928049;57;1138800;-77
2023/03/18 01:52:37;;;;;;;26.10;10.70;;;;;;;4.06;74.53;100625.75;5019876;57;1148464;-78
2023/03/18 01:57:43;;;;;;;27.07;10.10;;;;;;;4.00;74.68;100631.27;5041891;57;1138995;-77
2023/03/18 02:02:52;;;;;;;25.80;10.40;;;;;;;3.96;74.79;100629.28;5047148;56;1139148;-76
2023/03/18 02:07:59;;;;;;;23.83;11.17;;;;;;;3.93;74.95;100633.81;5106236;56;1138864;-79
2023/03/18 02:13:08;;;;;;;29.82;12.00;;;;;;;3.88;74.94;100632.25;5106439;56;1139000;-78
2023/03/18 02:18:20;;;;;;;27.17;9.97;;;;;;;3.85;75.22;100628.94;5126382;56;1138705;-77
2023/03/18 02:24:08;;;;;;;22.85;10.25;;;;;;;3.78;75.30;100626.23;5106624;56;1136853;-79
2023/03/18 02:29:17;;;;;;;26.17;11.30;;;;;;;3.75;75.62;100623.77;5106284;56;1138926;-79
2023/03/18 02:34:26;;;;;;;28.20;11.73;;;;;;;3.72;75.82;100617.37;5105789;56;1139025;-78
2023/03/18 02:39:32;;;;;;;35.07;10.73;;;;;;;3.70;76.08;100617.44;5111506;56;1138947;-81
2023/03/18 02:44:42;;;;;;;29.27;11.70;;;;;;;3.68;76.11;100611.42;5088314;56;1139016;-77
2023/03/18 02:50:04;;;;;;;27.17;11.03;;;;;;;3.65;76.38;100611.59;4931436;56;1138911;-74
2023/03/18 02:55:11;;;;;;;30.00;12.03;;;;;;;3.61;76.36;100600.88;5032413;56;1139067;-78
2023/03/18 03:00:17;;;;;;;23.30;10.57;;;;;;;3.58;76.75;100600.17;5004702;56;1138898;-78
2023/03/18 03:05:23;;;;;;;27.50;10.50;;;;;;;3.56;76.71;100598.09;5002198;56;1138820;-77
2023/03/18 03:10:30;;;;;;;30.02;12.40;;;;;;;3.56;76.74;100604.62;5033409;56;1138904;-79
2023/03/18 03:15:39;;;;;;;25.37;12.23;;;;;;;3.58;76.69;100606.72;5053326;56;1138927;-78
2023/03/18 03:20:45;;;;;;;33.33;12.30;;;;;;;3.57;76.66;100601.09;5033137;56;1138971;-77
2023/03/18 03:25:51;;;;;;;26.80;11.67;;;;;;;3.53;76.91;100596.00;5033631;56;1138964;-79
2023/03/18 03:30:59;;;;;;;27.43;11.80;;;;;;;3.47;77.14;100597.62;5033014;56;1138965;-81
2023/03/18 03:36:09;;;;;;;28.37;11.40;;;;;;;3.47;77.35;100613.30;5031099;56;1138853;-78
2023/03/18 03:41:15;;;;;;;27.30;11.70;;;;;;;3.46;77.52;100611.61;5008239;56;1139008;-80
2023/03/18 03:46:22;;;;;;;25.40;12.03;;;;;;;3.43;77.64;100620.90;4994002;56;1138874;-78
2023/03/18 03:51:30;;;;;;;28.40;12.50;;;;;;;3.40;77.81;100615.80;4971116;57;1141762;-76
2023/03/18 03:56:36;;;;;;;32.87;13.27;;;;;;;3.40;78.06;100621.03;5021233;56;1138854;-80
2023/03/18 04:01:42;;;;;;;30.67;13.47;;;;;;;3.39;78.19;100613.26;5032263;56;1139113;-82
2023/03/18 04:06:47;;;;;;;32.55;12.98;;;;;;;3.35;78.35;100607.35;5126717;56;1138908;-78
2023/03/18 04:11:53;;;;;;;26.53;13.07;;;;;;;3.31;78.44;100614.94;5105960;56;1138807;-80
2023/03/18 04:17:01;;;;;;;23.83;11.77;;;;;;;3.28;78.46;100617.69;5035639;56;1138800;-82
2023/03/18 04:22:08;;;;;;;27.80;13.53;;;;;;;3.29;78.47;100616.77;5022646;57;1139045;-82
2023/03/18 04:27:15;;;;;;;35.80;14.80;;;;;;;3.33;78.44;100625.33;5009756;57;1138993;-83
2023/03/18 04:32:22;;;;;;;39.80;18.23;;;;;;;3.35;78.34;100628.72;5043093;56;1138877;-81
2023/03/18 04:37:28;;;;;;;32.60;13.33;;;;;;;3.35;78.21;100616.95;5106846;56;1138735;-81
2023/03/18 04:42:34;;;;;;;29.03;12.63;;;;;;;3.29;78.15;100618.08;5095441;56;1138779;-79
2023/03/18 04:47:44;;;;;;;39.00;14.30;;;;;;;3.30;78.29;100619.77;5022964;57;1138797;-77
2023/03/18 04:52:51;;;;;;;27.53;12.63;;;;;;;3.31;78.25;100607.09;5022575;57;1138812;-81
2023/03/18 04:57:59;;;;;;;37.80;14.87;;;;;;;3.32;78.16;100593.11;5032654;56;1139101;-77
2023/03/18 05:03:06;;;;;;;31.75;13.70;;;;;;;3.33;77.99;100596.11;5126323;56;1138837;-80
2023/03/18 05:08:13;;;;;;;53.03;24.93;;;;;;;3.40;77.65;100591.42;5106399;56;1139292;-77
2023/03/18 05:13:19;;;;;;;35.97;13.10;;;;;;;3.45;77.82;100603.37;5106648;56;1139060;-80
2023/03/18 05:18:25;;;;;;;30.40;13.57;;;;;;;3.50;77.38;100603.17;5126756;56;1139002;-76
2023/03/18 05:23:33;;;;;;;30.48;11.85;;;;;;;3.51;77.14;100587.38;5086088;56;1138779;-80
2023/03/18 05:28:39;;;;;;;54.95;24.87;;;;;;;3.57;76.82;100599.79;5022679;57;1138878;-81
2023/03/18 05:33:50;;;;;;;31.47;13.23;;;;;;;3.59;76.91;100607.95;5042219;57;1138925;-77
2023/03/18 05:38:57;;;;;;;29.30;13.83;;;;;;;3.61;76.59;100608.73;5022531;57;1138986;-81
2023/03/18 05:44:04;;;;;;;29.03;13.90;;;;;;;3.66;76.71;100600.22;5022718;57;1139154;-80
2023/03/18 05:49:12;;;;;;;29.07;13.60;;;;;;;3.68;76.76;100600.96;5042090;57;1138736;-76
2023/03/18 05:54:28;;;;;;;28.03;12.20;;;;;;;3.72;76.48;100602.52;5020420;56;1138931;-81
2023/03/18 05:59:34;;;;;;;54.63;26.05;;;;;;;3.76;76.18;100601.46;4984949;56;1138797;-81
2023/03/18 06:04:40;;;;;;;30.20;12.45;;;;;;;3.78;75.72;100604.85;5052459;56;1139037;-79
2023/03/18 06:09:46;;;;;;;28.47;11.67;;;;;;;3.88;75.78;100607.86;5031114;56;1138838;-78
2023/03/18 06:14:53;;;;;;;30.33;13.03;;;;;;;3.94;75.10;100602.34;5032942;56;1138980;-79
2023/03/18 06:20:00;;;;;;;25.77;12.20;;;;;;;4.02;74.69;100611.11;4978079;56;1139156;-66
2023/03/18 06:25:07;;;;;;;29.57;12.17;;;;;;;4.08;74.02;100605.59;4970668;56;1138852;-73
2023/03/18 06:30:15;;;;;;;53.63;22.63;;;;;;;4.17;73.37;100599.42;4951426;56;1139181;-69
2023/03/18 06:35:25;;;;;;;30.63;11.03;;;;;;;4.27;73.61;100599.83;4951141;56;1139041;-71
2023/03/18 06:40:30;;;;;;;30.07;11.03;;;;;;;4.37;71.55;100606.28;4971355;56;1139039;-68
2023/03/18 06:45:37;;;;;;;24.40;10.70;;;;;;;4.47;72.16;100602.27;5031671;56;1138880;-69
2023/03/18 06:50:44;;;;;;;20.57;11.63;;;;;;;4.60;71.69;100597.23;5031577;56;1232568;-68
2023/03/18 06:55:52;;;;;;;20.63;11.77;;;;;;;4.73;71.87;100598.32;5053242;56;1138854;-72
2023/03/18 07:01:00;;;;;;;19.87;9.80;;;;;;;4.94;70.12;100606.34;4991612;56;1138984;-74
2023/03/18 07:06:09;;;;;;;25.37;10.20;;;;;;;5.32;69.59;100592.12;5070761;56;1136811;-68
2023/03/18 07:11:15;;;;;;;25.40;8.73;;;;;;;5.69;69.45;100607.96;5085699;56;1138994;-70
2023/03/18 07:16:22;;;;;;;24.40;9.28;;;;;;;5.96;66.26;100619.09;5085211;56;1136924;-72
2023/03/18 07:21:28;;;;;;;25.43;10.55;;;;;;;6.06;65.48;100621.20;5064782;56;1136840;-71
2023/03/18 07:26:36;;;;;;;22.90;9.80;;;;;;;6.14;64.72;100622.91;4991333;57;1138847;-72
2023/03/18 07:31:42;;;;;;;21.30;11.07;;;;;;;6.30;66.83;100623.72;4991542;57;1136974;-71
2023/03/18 07:36:48;;;;;;;24.57;10.10;;;;;;;6.55;65.96;100619.20;4976323;57;1138879;-70
2023/03/18 07:41:55;;;;;;;20.87;9.97;;;;;;;6.72;64.56;100624.77;4996188;56;1138903;-71
2023/03/18 07:47:03;;;;;;;24.07;13.77;;;;;;;6.94;63.71;100617.27;5044178;56;1136884;-69
2023/03/18 07:52:09;;;;;;;26.37;10.00;;;;;;;7.10;64.84;100618.48;5042838;56;1139378;-71
2023/03/18 07:57:15;;;;;;;18.43;9.63;;;;;;;7.13;62.13;100620.93;5099250;56;1138982;-70
2023/03/18 08:02:22;;;;;;;24.50;10.67;;;;;;;7.17;61.90;100621.13;4989958;56;1136911;-71
2023/03/18 08:07:28;;;;;;;27.37;12.60;;;;;;;7.34;63.18;100626.16;5029648;56;1138932;-68
2023/03/18 08:12:34;;;;;;;20.90;8.97;;;;;;;7.45;60.50;100617.61;5075283;56;1139872;-76
2023/03/18 08:17:40;;;;;;;21.03;10.07;;;;;;;7.46;61.53;100619.30;5035642;56;1137049;-68
2023/03/18 08:22:47;;;;;;;17.27;9.77;;;;;;;7.45;61.54;100629.45;4974556;57;1139049;-71
2023/03/18 08:27:53;;;;;;;19.32;9.13;;;;;;;7.47;62.32;100621.00;5059620;56;1136757;-74
2023/03/18 08:32:58;;;;;;;19.43;8.97;;;;;;;7.54;63.13;100627.08;5020352;56;1136826;-75
2023/03/18 08:38:05;;;;;;;18.90;9.07;;;;;;;7.69;61.74;100626.57;4963958;57;1137021;-75
2023/03/18 08:43:12;;;;;;;17.70;7.87;;;;;;;7.80;60.15;100622.77;5028850;56;1136880;-73
2023/03/18 08:48:18;;;;;;;17.77;7.90;;;;;;;7.83;58.22;100625.69;5005159;56;1136871;-79
2023/03/18 08:53:24;;;;;;;16.60;7.93;;;;;;;7.87;58.09;100625.86;4903592;58;1136910;-82
2023/03/18 08:58:30;;;;;;;16.27;9.10;;;;;;;7.93;59.95;100630.28;4949156;58;1137701;-81
2023/03/18 09:03:36;;;;;;;16.90;7.57;;;;;;;8.07;58.87;100630.70;4871310;58;1257695;-74
2023/03/18 09:08:43;;;;;;;19.23;8.70;;;;;;;8.19;59.63;100625.93;4879033;58;1136790;-78
2023/03/18 09:13:49;;;;;;;17.10;9.73;;;;;;;8.33;59.76;100621.09;4885841;57;1136935;-74
2023/03/18 09:18:55;;;;;;;15.10;7.50;;;;;;;8.50;59.23;100628.72;4837248;58;1137065;-78
2023/03/18 09:24:01;;;;;;;16.93;7.57;;;;;;;8.58;58.35;100619.80;4789794;59;1137037;-75
2023/03/18 09:29:07;;;;;;;20.20;7.47;;;;;;;8.73;59.24;100626.67;4836580;57;1137091;-75
2023/03/18 09:34:13;;;;;;;16.95;7.50;;;;;;;8.87;58.73;100621.77;4894944;57;1136961;-78
2023/03/18 09:39:21;;;;;;;12.00;6.50;;;;;;;8.99;57.81;100626.22;4993488;57;1137264;-73
2023/03/18 09:44:35;;;;;;;22.37;8.97;;;;;;;9.02;56.88;100619.39;4887882;58;1136890;-75
2023/03/18 09:50:24;;;;;;;12.87;7.47;;;;;;;9.11;59.79;100620.09;4966440;57;1136915;-75
2023/03/18 09:55:55;;;;;;;16.17;7.35;;;;;;;9.26;58.30;100623.45;4941603;57;1136867;-74
2023/03/18 10:01:04;;;;;;;18.10;7.00;;;;;;;9.41;58.46;100607.84;4769012;58;1137075;-76
2023/03/18 10:06:22;;;;;;;16.17;8.37;;;;;;;9.61;58.71;100608.22;4831519;58;1136813;-75
2023/03/18 10:11:51;;;;;;;23.30;9.70;;;;;;;9.84;57.41;100612.66;4834650;59;1139182;-77
2023/03/18 10:17:25;;;;;;;21.97;10.67;;;;;;;9.90;56.21;100589.77;4820126;58;1139155;-75
2023/03/18 10:23:04;;;;;;;12.30;7.03;;;;;;;10.10;56.36;100601.48;4859610;58;1141150;-73
2023/03/18 10:28:37;;;;;;;15.10;7.40;;;;;;;10.23;58.03;100599.67;4831845;59;1141162;-78
2023/03/18 10:34:02;;;;;;;22.40;10.87;;;;;;;10.37;56.90;100595.99;4864018;58;1141072;-76
2023/03/18 10:39:16;;;;;;;10.55;7.10;;;;;;;10.43;55.86;100594.19;4937988;57;1143189;-73
2023/03/18 10:44:31;;;;;;;15.20;7.90;;;;;;;10.49;55.09;100590.61;4954900;57;1140995;-74
2023/03/18 10:49:44;;;;;;;13.83;8.43;;;;;;;10.49;55.67;100593.73;4753058;59;1140913;-75
2023/03/18 10:54:51;;;;;;;24.55;7.42;;;;;;;10.53;56.50;100592.07;4829012;58;1141132;-78
2023/03/18 10:59:57;;;;;;;11.28;6.55;;;;;;;10.60;58.02;100589.78;4865357;58;1141115;-74
2023/03/18 11:05:10;;;;;;;16.45;7.12;;;;;;;10.61;57.43;100584.86;4875957;58;1141152;-79
2023/03/18 11:10:20;;;;;;;25.40;14.07;;;;;;;10.56;57.18;100588.33;4785840;59;1141035;-80
2023/03/18 11:15:27;;;;;;;13.13;7.87;;;;;;;10.61;58.52;100583.53;4826166;58;1143209;-78
2023/03/18 11:20:46;;;;;;;14.53;8.38;;;;;;;10.72;58.45;100584.86;4920309;57;1140974;-80
2023/03/18 11:25:55;;;;;;;22.17;7.90;;;;;;;10.77;58.32;100587.16;4821201;58;1141025;-78
2023/03/18 11:31:05;;;;;;;13.63;6.37;;;;;;;10.89;57.74;100587.05;4916867;57;1141161;-80
2023/03/18 11:36:15;;;;;;;11.35;7.28;;;;;;;10.99;57.05;100576.61;4986722;57;1141059;-76
2023/03/18 11:41:26;;;;;;;17.90;10.10;;;;;;;11.08;57.81;100583.81;5031509;56;1140961;-76
2023/03/18 11:46:51;;;;;;;14.20;8.03;;;;;;;11.19;55.73;100573.70;5070391;56;1143008;-79
2023/03/18 11:52:30;;;;;;;15.47;7.70;;;;;;;11.21;56.17;100562.02;5043694;56;1141101;-80
2023/03/18 11:58:16;;;;;;;14.20;7.43;;;;;;;11.32;58.13;100562.48;5031061;56;1140934;-77
2023/03/18 12:03:51;;;;;;;20.00;8.03;;;;;;;11.50;57.03;100566.31;5019228;56;1140896;-79
2023/03/18 12:09:17;;;;;;;14.58;7.10;;;;;;;11.84;55.65;100567.09;5025923;56;1142013;-84
2023/03/18 12:14:51;;;;;;;11.90;6.60;;;;;;;12.12;53.94;100567.46;4924859;58;1141095;-75
2023/03/18 12:20:23;;;;;;;;;;;;;;;12.25;53.34;100567.62;4846153;59;1140900;-79
2023/03/18 12:25:49;;;;;;;14.93;7.40;;;;;;;12.37;54.71;100569.77;4751957;60;976248;-78
2023/03/18 12:31:40;;;;;;;12.37;7.33;;;;;;;12.51;54.19;100582.70;4813301;60;1138915;-79
2023/03/18 12:36:55;;;;;;;11.93;7.03;;;;;;;12.60;53.11;100580.58;4780789;60;1140955;-79
2023/03/18 12:42:20;;;;;;;11.47;6.20;;;;;;;12.67;52.61;100576.45;4800052;59;1141097;-74
2023/03/18 12:47:36;;;;;;;15.37;9.23;;;;;;;12.76;51.25;100581.92;4877733;58;1140897;-73
2023/03/18 12:53:15;;;;;;;13.80;8.37;;;;;;;12.91;52.11;100581.94;4889105;59;1140978;-80
2023/03/18 12:58:28;;;;;;;17.90;9.20;;;;;;;13.16;52.41;100570.88;4915697;57;1140989;-82
2023/03/18 13:03:41;;;;;;;15.47;8.43;;;;;;;13.32;51.79;100576.53;4972551;57;1140949;-80
2023/03/18 13:09:07;;;;;;;20.62;10.08;;;;;;;13.42;48.71;100576.58;5125243;56;1140856;-81
2023/03/18 13:14:26;;;;;;;16.27;8.20;;;;;;;13.55;51.96;100571.02;5105858;56;1143144;-75
2023/03/18 13:19:34;;;;;;;15.53;8.07;;;;;;;13.69;52.98;100571.94;5056592;56;1141031;-73
2023/03/18 13:25:01;;;;;;;20.80;13.93;;;;;;;13.88;51.46;100575.13;5108372;56;1141050;-79
2023/03/18 13:30:33;;;;;;;22.93;11.80;;;;;;;13.87;50.76;100567.63;4997237;56;1262046;-77
2023/03/18 13:36:03;;;;;;;18.15;9.23;;;;;;;13.96;51.67;100563.28;5012303;57;1142943;-77
2023/03/18 13:41:38;;;;;;;17.85;9.85;;;;;;;13.88;50.40;100557.35;5019197;56;1140968;-77
2023/03/18 13:46:48;;;;;;;16.17;9.97;;;;;;;13.91;51.37;100562.86;5069026;56;1140809;-78
2023/03/18 13:52:07;;;;;;;14.47;8.67;;;;;;;13.83;50.67;100562.23;5095550;56;1140893;-78
2023/03/18 13:57:32;;;;;;;16.97;8.93;;;;;;;13.77;51.62;100564.11;5037144;56;1141038;-75
2023/03/18 14:02:47;;;;;;;14.33;10.00;;;;;;;13.80;51.24;100570.97;4974625;57;1140941;-77
2023/03/18 14:07:56;;;;;;;14.00;8.77;;;;;;;13.87;53.04;100562.80;5049235;57;1143011;-80
2023/03/18 14:13:21;;;;;;;18.30;9.70;;;;;;;13.94;52.46;100567.90;5095865;56;1141154;-75
2023/03/18 14:18:28;;;;;;;18.87;10.27;;;;;;;13.97;51.56;100567.14;5081764;56;1140971;-74
2023/03/18 14:23:46;;;;;;;22.40;9.73;;;;;;;14.00;50.55;100572.67;5085657;56;1142962;-79
2023/03/18 14:29:06;;;;;;;37.90;11.83;;;;;;;14.02;51.92;100566.73;5043373;57;1140923;-75
2023/03/18 14:34:19;;;;;;;17.77;9.50;;;;;;;14.02;53.02;100556.09;5056440;56;1142969;-78
2023/03/18 14:39:42;;;;;;;16.67;9.50;;;;;;;14.03;52.32;100555.11;5049169;57;1140897;-74
2023/03/18 14:44:51;;;;;;;25.00;12.50;;;;;;;14.02;52.58;100552.95;5034871;57;1140987;-76
2023/03/18 14:50:13;;;;;;;14.87;8.67;;;;;;;14.02;51.79;100552.95;4995449;57;1142974;-73
2023/03/18 14:55:27;;;;;;;15.28;9.63;;;;;;;13.99;51.20;100550.56;5023224;56;1141190;-72
2023/03/18 15:00:37;;;;;;;19.12;9.58;;;;;;;14.03;52.83;100546.65;5013870;56;1141021;-77
2023/03/18 15:05:45;;;;;;;23.40;12.97;;;;;;;14.01;51.27;100548.61;5021331;57;1141002;-72
2023/03/18 15:10:52;;;;;;;30.07;15.83;;;;;;;13.97;51.21;100545.02;4903533;58;1143047;-76
2023/03/18 15:15:58;;;;;;;24.90;12.00;;;;;;;13.93;51.27;100547.61;4909355;58;1142977;-76
2023/03/18 15:21:09;;;;;;;20.10;11.03;;;;;;;13.93;51.59;100549.78;4910009;57;1142987;-74
2023/03/18 15:26:25;;;;;;;57.37;21.03;;;;;;;13.90;52.00;100540.74;4837140;59;1143048;-73
2023/03/18 15:31:41;;;;;;;28.27;13.00;;;;;;;13.88;52.91;100536.57;4867987;58;1143303;-77
2023/03/18 15:36:54;;;;;;;22.20;10.57;;;;;;;13.79;53.01;100532.91;4900025;58;1143126;-74
2023/03/18 15:42:02;;;;;;;31.67;15.30;;;;;;;13.75;53.37;100534.16;4899743;57;1143279;-77
2023/03/18 15:47:24;;;;;;;45.43;21.03;;;;;;;13.71;53.69;100535.44;4979466;57;1143096;-77
2023/03/18 15:52:36;;;;;;;45.87;17.53;;;;;;;13.67;54.09;100536.69;4948337;57;1143005;-79
2023/03/18 15:57:43;;;;;;;55.40;21.83;;;;;;;13.62;54.62;100542.41;4939771;57;1143305;-79
2023/03/18 16:02:51;;;;;;;21.90;12.03;;;;;;;13.61;54.90;100547.86;4976295;57;1143203;-74
2023/03/18 16:07:58;;;;;;;26.93;13.00;;;;;;;13.55;54.40;100545.28;4898882;58;1143015;-74
2023/03/18 16:13:04;;;;;;;27.93;15.10;;;;;;;13.48;54.67;100557.91;4879310;58;1143014;-79
2023/03/18 16:18:10;;;;;;;48.97;15.43;;;;;;;13.45;54.59;100557.69;4886311;59;1143057;-78
2023/03/18 16:23:18;;;;;;;91.00;30.05;;;;;;;13.41;55.16;100552.31;5013431;56;1143048;-70
2023/03/18 16:28:27;;;;;;;27.07;12.82;;;;;;;13.34;55.29;100565.77;5044085;56;1143053;-73
2023/03/18 16:33:34;;;;;;;61.13;34.37;;;;;;;13.29;55.11;100564.84;4980969;57;1143308;-76
2023/03/18 16:38:40;;;;;;;53.23;24.60;;;;;;;13.18;54.84;100559.64;5042398;56;1143259;-79
2023/03/18 16:43:48;;;;;;;57.10;27.70;;;;;;;13.09;55.40;100562.24;5049395;56;1143185;-80
2023/03/18 16:48:54;;;;;;;69.03;24.47;;;;;;;13.04;56.02;100566.62;5047182;56;1143254;-77
2023/03/18 16:54:00;;;;;;;57.00;24.97;;;;;;;13.00;56.02;100571.83;5051690;56;1143259;-73
2023/03/18 16:59:10;;;;;;;90.87;54.47;;;;;;;12.95;56.20;100572.74;4929987;58;1143094;-77
2023/03/18 17:04:24;;;;;;;88.27;48.08;;;;;;;12.91;56.32;100576.63;4870219;59;1143068;-77
2023/03/18 17:09:30;;;;;;;71.97;31.87;;;;;;;12.82;56.08;100572.96;4930068;58;1142986;-74
2023/03/18 17:14:42;;;;;;;66.93;35.57;;;;;;;12.69;56.67;100579.78;5030633;57;1143067;-75
2023/03/18 17:19:48;;;;;;;102.60;54.83;;;;;;;12.60;57.38;100586.37;4866076;59;1143166;-74
2023/03/18 17:24:55;;;;;;;80.73;42.83;;;;;;;12.52;57.86;100579.56;4921604;58;1145104;-77
2023/03/18 17:30:01;;;;;;;96.30;44.13;;;;;;;12.42;58.29;100587.44;4894923;58;1143194;-74
2023/03/18 17:35:16;;;;;;;59.52;27.40;;;;;;;12.33;58.59;100589.55;4936080;58;1146345;-75
2023/03/18 17:40:23;;;;;;;191.40;107.37;;;;;;;12.24;59.00;100591.14;4919901;57;1143080;-75
2023/03/18 17:45:36;;;;;;;87.30;41.37;;;;;;;12.15;59.32;100591.91;4933604;57;1147309;-77
2023/03/18 17:50:43;;;;;;;61.47;30.10;;;;;;;12.05;59.64;100596.79;4931372;57;1143287;-80
2023/03/18 17:55:49;;;;;;;70.83;41.17;;;;;;;11.95;60.11;100597.53;4893548;58;1143193;-77
2023/03/18 18:01:06;;;;;;;60.07;32.70;;;;;;;11.93;60.59;100595.96;4933080;57;1143170;-80
2023/03/18 18:06:22;;;;;;;50.45;26.17;;;;;;;11.92;61.46;100606.20;4967904;57;1144011;-77
2023/03/18 18:11:36;;;;;;;44.63;22.57;;;;;;;11.86;62.00;100608.05;4917437;58;1143078;-75
2023/03/18 18:16:42;;;;;;;47.80;23.17;;;;;;;11.78;62.37;100599.86;4979030;57;1143174;-74
2023/03/18 18:21:49;;;;;;;63.58;31.25;;;;;;;11.68;62.47;100600.23;4979174;57;1143163;-74
2023/03/18 18:26:55;;;;;;;145.23;79.57;;;;;;;11.60;62.97;100604.36;5060584;56;1143160;-76
2023/03/18 18:32:01;;;;;;;124.57;53.40;;;;;;;11.42;63.87;100605.83;5095616;56;1145181;-88
2023/03/18 18:37:08;;;;;;;138.10;52.53;;;;;;;11.42;63.87;100605.83;4950596;58;1145224;-77
2023/03/18 18:42:14;;;;;;;156.33;60.00;;;;;;;11.36;64.65;100619.54;5091344;56;1149123;-76
2023/03/18 18:47:20;;;;;;;224.02;70.80;;;;;;;11.32;65.51;100619.89;4950373;57;1145081;-78
2023/03/18 18:52:25;;;;;;;219.13;75.20;;;;;;;11.18;65.54;100625.80;4871835;59;1145006;-78
2023/03/18 18:57:34;;;;;;;196.60;63.77;;;;;;;10.98;65.71;100621.72;5034610;56;1145308;-78
2023/03/18 19:02:42;;;;;;;220.37;65.33;;;;;;;10.82;66.42;100628.67;4947353;58;1145279;-79
2023/03/18 19:07:48;;;;;;;244.93;75.20;;;;;;;10.69;67.06;100636.70;4975413;57;1145269;-77
2023/03/18 19:12:54;;;;;;;257.30;74.13;;;;;;;10.50;67.54;100640.37;5049021;57;1144992;-77
2023/03/18 19:17:59;;;;;;;192.17;61.97;;;;;;;10.27;67.98;100635.47;5094283;56;1145041;-75
2023/03/18 19:23:12;;;;;;;220.02;72.97;;;;;;;10.18;68.74;100633.49;5019324;56;1145016;-75
2023/03/18 19:28:23;;;;;;;;;;;;;;;10.12;69.13;100630.81;5035793;57;1145283;-75
2023/03/18 19:33:27;;;;;;;276.55;92.82;;;;;;;10.03;69.53;100623.58;5031544;57;976157;-76
2023/03/18 19:38:35;;;;;;;243.47;91.10;;;;;;;9.96;69.95;100624.13;5012268;56;1143165;-76
2023/03/18 19:43:41;;;;;;;289.17;89.10;;;;;;;9.87;70.22;100626.97;5042801;56;1143106;-76
2023/03/18 19:48:47;;;;;;;303.90;91.93;;;;;;;9.73;70.61;100627.13;5023552;56;1140912;-77
2023/03/18 19:53:53;;;;;;;308.20;103.13;;;;;;;9.63;71.24;100627.41;5077060;56;1140948;-78
2023/03/18 19:58:59;;;;;;;297.07;97.60;;;;;;;9.45;71.43;100629.12;5096527;56;1143176;-79
2023/03/18 20:04:09;;;;;;;267.00;90.33;;;;;;;9.29;71.98;100625.88;5115027;56;1140887;-78
2023/03/18 20:09:16;;;;;;;267.87;93.50;;;;;;;9.17;72.71;100629.34;5096657;56;1150555;-80
2023/03/18 20:14:36;;;;;;;251.90;92.02;;;;;;;9.04;73.08;100636.44;5096945;56;1141032;-75
2023/03/18 20:19:38;;;;;;;204.33;71.83;;;;;;;8.98;73.37;100638.20;5064259;56;1140957;-78
2023/03/18 20:24:44;;;;;;;175.30;66.87;;;;;;;8.85;73.70;100641.31;4871884;58;1141185;-78
2023/03/18 20:29:50;;;;;;;162.27;63.73;;;;;;;8.76;74.40;100639.66;4923784;58;1140987;-76
2023/03/18 20:34:55;;;;;;;165.23;61.37;;;;;;;8.78;74.88;100640.41;5002843;57;1140978;-78
2023/03/18 20:40:06;;;;;;;119.17;49.20;;;;;;;8.79;75.11;100650.48;4983812;57;1141108;-76
2023/03/18 20:45:16;;;;;;;122.10;49.15;;;;;;;8.76;75.53;100637.02;5059226;56;1149215;-78
2023/03/18 20:50:32;;;;;;;194.52;78.80;;;;;;;8.74;75.50;100635.43;5059150;56;1140906;-68
2023/03/18 20:55:35;;;;;;;146.57;73.07;;;;;;;8.65;75.92;100634.27;5011981;56;1141089;-71
2023/03/18 21:00:41;;;;;;;220.87;101.23;;;;;;;8.52;76.34;100629.94;4983319;57;1140816;-71
2023/03/18 21:05:47;;;;;;;228.47;94.57;;;;;;;8.34;76.74;100630.69;5003922;57;1143108;-74
2023/03/18 21:10:56;;;;;;;173.93;74.50;;;;;;;8.31;77.48;100626.43;5044693;56;1141067;-67
2023/03/18 21:16:05;;;;;;;261.13;106.60;;;;;;;8.24;77.76;100623.84;5026692;56;1141030;-68
2023/03/18 21:21:28;;;;;;;206.25;83.40;;;;;;;8.01;78.00;100627.98;5018406;56;1143354;-68
2023/03/18 21:26:33;;;;;;;252.57;97.93;;;;;;;7.96;78.93;100626.58;5020851;56;1140945;-76
2023/03/18 21:31:39;;;;;;;258.70;109.10;;;;;;;7.92;79.21;100625.11;5009304;56;1143026;-69
2023/03/18 21:36:45;;;;;;;178.17;79.10;;;;;;;7.90;79.26;100631.78;5065843;56;1145083;-72
2023/03/18 21:41:51;;;;;;;160.83;70.33;;;;;;;7.80;79.68;100631.98;5067077;57;1143187;-72
2023/03/18 21:46:58;;;;;;;117.63;45.63;;;;;;;7.90;81.14;100631.78;4983194;57;1143191;-74
2023/03/18 21:52:03;;;;;;;102.22;44.10;;;;;;;7.92;80.99;100627.27;4983435;57;1143351;-74
2023/03/18 21:57:18;;;;;;;109.07;44.63;;;;;;;7.91;80.84;100618.15;5003054;57;1140989;-73
2023/03/18 22:02:36;;;;;;;77.32;35.75;;;;;;;7.87;81.00;100613.55;4981671;57;1141203;-74
2023/03/18 22:07:42;;;;;;;76.70;31.53;;;;;;;7.71;80.66;100615.48;4983583;57;1138897;-69
2023/03/18 22:12:48;;;;;;;72.27;33.10;;;;;;;7.57;81.08;100618.14;5003546;57;1138991;-73
2023/03/18 22:17:54;;;;;;;76.27;36.87;;;;;;;7.49;81.41;100627.83;4984350;57;1138990;-73
2023/03/18 22:22:59;;;;;;;59.23;28.70;;;;;;;7.40;81.98;100626.63;4984014;58;1139101;-69
2023/03/18 22:28:06;;;;;;;66.35;29.77;;;;;;;7.39;82.26;100624.09;4984353;57;1139005;-65
2023/03/18 22:33:32;;;;;;;70.90;34.40;;;;;;;7.34;82.23;100632.73;5008212;57;1138864;-68
2023/03/18 22:38:38;;;;;;;106.20;45.37;;;;;;;7.29;82.68;100636.98;4867772;58;1138880;-69
2023/03/18 22:43:44;;;;;;;110.97;44.47;;;;;;;7.22;82.60;100632.19;4951113;58;1140877;-69
2023/03/18 22:48:50;;;;;;;89.57;38.23;;;;;;;7.13;82.60;100636.71;4970048;58;1140972;-68
2023/03/18 22:53:56;;;;;;;114.73;45.87;;;;;;;7.08;83.04;100629.56;4932092;58;1138951;-71
2023/03/18 22:59:03;;;;;;;81.77;33.30;;;;;;;6.97;83.61;100632.86;5022179;56;1141006;-72
2023/03/18 23:04:12;;;;;;;128.57;53.80;;;;;;;6.85;83.99;100629.66;5096804;56;1138910;-69
2023/03/18 23:09:17;;;;;;;175.73;75.37;;;;;;;6.85;84.56;100633.14;5116647;56;1143187;-70
2023/03/18 23:14:23;;;;;;;147.80;65.62;;;;;;;6.83;85.26;100637.64;5046668;56;1143041;-72